sensor_id;sensor_type;location;lat;lon;timestamp;pressure;altitude;pressure_sealevel;temperature;humidity
53506;BME280;39388;50.936;6.848;2022-08-19T00:00:14;100706.75;;;21.41;67.12
53506;BME280;39388;50.936;6.848;2022-08-19T00:02:45;100708.69;;;21.37;67.14
53506;BME280;39388;50.936;6.848;2022-08-19T00:05:17;100704.50;;;21.33;66.82
53506;BME280;39388;50.936;6.848;2022-08-19T00:07:50;100703.97;;;21.27;66.91
53506;BME280;39388;50.936;6.848;2022-08-19T00:10:21;100712.63;;;21.29;67.19
53506;BME280;39388;50.936;6.848;2022-08-19T00:12:51;100706.72;;;21.23;67.16
53506;BME280;39388;50.936;6.848;2022-08-19T00:15:22;100704.19;;;21.22;67.13
53506;BME280;39388;50.936;6.848;2022-08-19T00:17:53;100706.03;;;21.20;67.29
53506;BME280;39388;50.936;6.848;2022-08-19T00:20:24;100703.50;;;21.18;67.54
53506;BME280;39388;50.936;6.848;2022-08-19T00:22:54;100713.19;;;21.16;67.49
53506;BME280;39388;50.936;6.848;2022-08-19T00:25:25;100696.84;;;21.11;67.85
53506;BME280;39388;50.936;6.848;2022-08-19T00:27:56;100705.72;;;21.08;68.45
53506;BME280;39388;50.936;6.848;2022-08-19T00:30:26;100707.41;;;21.09;68.09
53506;BME280;39388;50.936;6.848;2022-08-19T00:32:59;100707.56;;;21.06;68.70
53506;BME280;39388;50.936;6.848;2022-08-19T00:35:30;100715.56;;;21.03;68.31
53506;BME280;39388;50.936;6.848;2022-08-19T00:38:00;100713.84;;;21.02;68.55
53506;BME280;39388;50.936;6.848;2022-08-19T00:40:31;100708.72;;;21.01;68.52
53506;BME280;39388;50.936;6.848;2022-08-19T00:43:08;100713.16;;;20.99;68.90
53506;BME280;39388;50.936;6.848;2022-08-19T00:45:39;100694.97;;;20.96;69.10
53506;BME280;39388;50.936;6.848;2022-08-19T00:48:12;100703.75;;;20.94;68.86
53506;BME280;39388;50.936;6.848;2022-08-19T00:50:44;100697.97;;;20.88;69.15
53506;BME280;39388;50.936;6.848;2022-08-19T00:53:16;100710.22;;;20.87;69.21
53506;BME280;39388;50.936;6.848;2022-08-19T00:55:51;100711.22;;;20.85;69.35
53506;BME280;39388;50.936;6.848;2022-08-19T00:58:26;100709.59;;;20.82;69.46
53506;BME280;39388;50.936;6.848;2022-08-19T01:00:57;100703.66;;;20.78;69.43
53506;BME280;39388;50.936;6.848;2022-08-19T01:03:28;100702.81;;;20.78;69.55
53506;BME280;39388;50.936;6.848;2022-08-19T01:05:59;100701.16;;;20.75;69.68
53506;BME280;39388;50.936;6.848;2022-08-19T01:08:30;100696.28;;;20.68;69.67
53506;BME280;39388;50.936;6.848;2022-08-19T01:11:00;100706.50;;;20.74;69.88
53506;BME280;39388;50.936;6.848;2022-08-19T01:13:33;100709.94;;;20.74;70.01
53506;BME280;39388;50.936;6.848;2022-08-19T01:16:07;100706.78;;;20.68;70.01
53506;BME280;39388;50.936;6.848;2022-08-19T01:18:40;100701.63;;;20.66;70.04
53506;BME280;39388;50.936;6.848;2022-08-19T01:21:23;100696.28;;;20.68;70.22
53506;BME280;39388;50.936;6.848;2022-08-19T01:23:56;100698.13;;;20.66;70.25
53506;BME280;39388;50.936;6.848;2022-08-19T01:26:27;100694.81;;;20.62;70.30
53506;BME280;39388;50.936;6.848;2022-08-19T01:28:59;100693.22;;;20.59;70.55
53506;BME280;39388;50.936;6.848;2022-08-19T01:31:31;100679.56;;;20.53;70.34
53506;BME280;39388;50.936;6.848;2022-08-19T01:34:01;100690.72;;;20.56;70.68
53506;BME280;39388;50.936;6.848;2022-08-19T01:36:43;100682.38;;;20.48;70.71
53506;BME280;39388;50.936;6.848;2022-08-19T01:39:18;100689.38;;;20.47;70.70
53506;BME280;39388;50.936;6.848;2022-08-19T01:41:50;100687.63;;;20.48;70.76
53506;BME280;39388;50.936;6.848;2022-08-19T01:44:22;100688.59;;;20.45;70.92
53506;BME280;39388;50.936;6.848;2022-08-19T01:46:54;100676.59;;;20.41;70.98
53506;BME280;39388;50.936;6.848;2022-08-19T01:49:25;100680.13;;;20.40;71.05
53506;BME280;39388;50.936;6.848;2022-08-19T01:51:56;100674.94;;;20.39;71.22
53506;BME280;39388;50.936;6.848;2022-08-19T01:54:29;100673.41;;;20.35;71.49
53506;BME280;39388;50.936;6.848;2022-08-19T01:57:03;100668.88;;;20.38;71.17
53506;BME280;39388;50.936;6.848;2022-08-19T01:59:35;100662.06;;;20.34;71.31
53506;BME280;39388;50.936;6.848;2022-08-19T02:02:06;100657.81;;;20.31;71.58
53506;BME280;39388;50.936;6.848;2022-08-19T02:04:40;100674.34;;;20.32;71.35
53506;BME280;39388;50.936;6.848;2022-08-19T02:07:10;100682.19;;;20.32;71.59
53506;BME280;39388;50.936;6.848;2022-08-19T02:09:41;100688.44;;;20.29;71.65
53506;BME280;39388;50.936;6.848;2022-08-19T02:12:11;100674.13;;;20.17;71.82
53506;BME280;39388;50.936;6.848;2022-08-19T02:14:42;100686.25;;;20.20;71.91
53506;BME280;39388;50.936;6.848;2022-08-19T02:17:12;100680.25;;;20.18;72.11
53506;BME280;39388;50.936;6.848;2022-08-19T02:19:43;100688.16;;;20.16;72.20
53506;BME280;39388;50.936;6.848;2022-08-19T02:22:13;100673.44;;;20.14;72.17
53506;BME280;39388;50.936;6.848;2022-08-19T02:24:44;100668.34;;;20.11;72.00
53506;BME280;39388;50.936;6.848;2022-08-19T02:27:14;100685.69;;;20.13;72.39
53506;BME280;39388;50.936;6.848;2022-08-19T02:29:47;100681.38;;;20.12;72.09
53506;BME280;39388;50.936;6.848;2022-08-19T02:32:18;100681.38;;;20.12;72.31
53506;BME280;39388;50.936;6.848;2022-08-19T02:34:51;100678.94;;;20.08;72.23
53506;BME280;39388;50.936;6.848;2022-08-19T02:37:22;100688.50;;;20.09;72.46
53506;BME280;39388;50.936;6.848;2022-08-19T02:40:12;100692.81;;;20.10;72.33
53506;BME280;39388;50.936;6.848;2022-08-19T02:42:42;100685.31;;;20.02;72.37
53506;BME280;39388;50.936;6.848;2022-08-19T02:45:14;100698.22;;;20.07;72.69
53506;BME280;39388;50.936;6.848;2022-08-19T02:47:44;100702.56;;;20.06;72.50
53506;BME280;39388;50.936;6.848;2022-08-19T02:50:15;100700.22;;;20.00;72.51
53506;BME280;39388;50.936;6.848;2022-08-19T02:52:45;100695.94;;;19.99;72.78
53506;BME280;39388;50.936;6.848;2022-08-19T02:55:15;100696.91;;;19.96;72.73
53506;BME280;39388;50.936;6.848;2022-08-19T02:57:46;100708.28;;;19.95;72.82
53506;BME280;39388;50.936;6.848;2022-08-19T03:00:17;100706.75;;;19.91;72.85
53506;BME280;39388;50.936;6.848;2022-08-19T03:02:47;100704.28;;;19.86;72.81
53506;BME280;39388;50.936;6.848;2022-08-19T03:05:19;100701.56;;;19.90;72.96
53506;BME280;39388;50.936;6.848;2022-08-19T03:07:49;100699.94;;;19.87;73.05
53506;BME280;39388;50.936;6.848;2022-08-19T03:10:20;100703.38;;;19.87;72.97
53506;BME280;39388;50.936;6.848;2022-08-19T03:12:50;100706.88;;;19.88;73.18
53506;BME280;39388;50.936;6.848;2022-08-19T03:15:20;100699.06;;;19.86;73.14
53506;BME280;39388;50.936;6.848;2022-08-19T03:17:51;100695.69;;;19.84;73.42
53506;BME280;39388;50.936;6.848;2022-08-19T03:20:21;100697.41;;;19.85;73.63
53506;BME280;39388;50.936;6.848;2022-08-19T03:22:52;100707.00;;;19.85;73.65
53506;BME280;39388;50.936;6.848;2022-08-19T03:25:22;100700.19;;;19.81;73.71
53506;BME280;39388;50.936;6.848;2022-08-19T03:27:52;100702.09;;;19.77;73.74
53506;BME280;39388;50.936;6.848;2022-08-19T03:30:23;100711.66;;;19.78;73.87
53506;BME280;39388;50.936;6.848;2022-08-19T03:32:53;100708.25;;;19.76;73.98
53506;BME280;39388;50.936;6.848;2022-08-19T03:35:23;100717.91;;;19.74;74.10
53506;BME280;39388;50.936;6.848;2022-08-19T03:37:54;100716.28;;;19.71;74.33
53506;BME280;39388;50.936;6.848;2022-08-19T03:40:26;100723.34;;;19.69;74.37
53506;BME280;39388;50.936;6.848;2022-08-19T03:42:56;100723.34;;;19.69;74.34
53506;BME280;39388;50.936;6.848;2022-08-19T03:45:27;100729.50;;;19.68;74.35
53506;BME280;39388;50.936;6.848;2022-08-19T03:47:57;100723.69;;;19.62;74.41
53506;BME280;39388;50.936;6.848;2022-08-19T03:50:27;100731.31;;;19.66;74.40
53506;BME280;39388;50.936;6.848;2022-08-19T03:52:58;100727.91;;;19.64;74.45
53506;BME280;39388;50.936;6.848;2022-08-19T03:55:29;100726.38;;;19.60;74.49
53506;BME280;39388;50.936;6.848;2022-08-19T03:58:00;100733.16;;;19.64;74.62
53506;BME280;39388;50.936;6.848;2022-08-19T04:00:31;100728.06;;;19.61;74.54
53506;BME280;39388;50.936;6.848;2022-08-19T04:03:02;100731.41;;;19.65;74.72
53506;BME280;39388;50.936;6.848;2022-08-19T04:05:32;100729.63;;;19.65;74.61
53506;BME280;39388;50.936;6.848;2022-08-19T04:08:04;100735.44;;;19.72;74.62
53506;BME280;39388;50.936;6.848;2022-08-19T04:10:36;100732.78;;;19.74;74.66
53506;BME280;39388;50.936;6.848;2022-08-19T04:13:06;100733.69;;;19.72;74.35
53506;BME280;39388;50.936;6.848;2022-08-19T04:15:41;100733.78;;;19.71;74.54
53506;BME280;39388;50.936;6.848;2022-08-19T04:18:13;100736.44;;;19.69;74.77
53506;BME280;39388;50.936;6.848;2022-08-19T04:20:46;100741.75;;;19.68;74.73
53506;BME280;39388;50.936;6.848;2022-08-19T04:23:16;100747.03;;;19.66;75.03
53506;BME280;39388;50.936;6.848;2022-08-19T04:25:49;100740.88;;;19.67;75.08
53506;BME280;39388;50.936;6.848;2022-08-19T04:28:19;100730.63;;;19.63;75.28
53506;BME280;39388;50.936;6.848;2022-08-19T04:30:53;100742.84;;;19.62;75.40
53506;BME280;39388;50.936;6.848;2022-08-19T04:33:24;100730.81;;;19.58;75.38
53506;BME280;39388;50.936;6.848;2022-08-19T04:35:55;100732.63;;;19.56;75.59
53506;BME280;39388;50.936;6.848;2022-08-19T04:38:28;100741.41;;;19.55;75.79
53506;BME280;39388;50.936;6.848;2022-08-19T04:40:58;100740.69;;;19.51;75.75
53506;BME280;39388;50.936;6.848;2022-08-19T04:43:47;100743.22;;;19.53;75.93
53506;BME280;39388;50.936;6.848;2022-08-19T04:46:18;100744.09;;;19.53;76.01
53506;BME280;39388;50.936;6.848;2022-08-19T04:48:50;100751.75;;;19.58;76.07
53506;BME280;39388;50.936;6.848;2022-08-19T04:51:20;100754.28;;;19.60;75.88
53506;BME280;39388;50.936;6.848;2022-08-19T04:53:51;100751.06;;;19.53;75.82
53506;BME280;39388;50.936;6.848;2022-08-19T04:56:22;100744.41;;;19.46;75.98
53506;BME280;39388;50.936;6.848;2022-08-19T04:58:56;100770.84;;;19.60;75.99
53506;BME280;39388;50.936;6.848;2022-08-19T05:01:28;100772.47;;;19.63;76.31
53506;BME280;39388;50.936;6.848;2022-08-19T05:04:01;100765.66;;;19.59;76.48
53506;BME280;39388;50.936;6.848;2022-08-19T05:06:33;100783.47;;;19.71;76.54
53506;BME280;39388;50.936;6.848;2022-08-19T05:09:04;100785.03;;;19.75;76.54
53506;BME280;39388;50.936;6.848;2022-08-19T05:11:36;100788.34;;;19.79;76.74
53506;BME280;39388;50.936;6.848;2022-08-19T05:14:10;100786.53;;;19.81;77.11
53506;BME280;39388;50.936;6.848;2022-08-19T05:16:42;100786.28;;;19.87;77.09
53506;BME280;39388;50.936;6.848;2022-08-19T05:19:13;100787.84;;;19.91;77.23
53506;BME280;39388;50.936;6.848;2022-08-19T05:22:02;100796.47;;;19.93;77.16
53506;BME280;39388;50.936;6.848;2022-08-19T05:24:51;100792.09;;;19.94;77.16
53506;BME280;39388;50.936;6.848;2022-08-19T05:27:22;100799.75;;;19.98;77.08
53506;BME280;39388;50.936;6.848;2022-08-19T05:29:52;100797.91;;;20.00;77.16
53506;BME280;39388;50.936;6.848;2022-08-19T05:32:22;100793.53;;;20.01;77.06
53506;BME280;39388;50.936;6.848;2022-08-19T05:34:53;100801.03;;;20.09;77.34
53506;BME280;39388;50.936;6.848;2022-08-19T05:37:24;100800.06;;;20.11;77.30
53506;BME280;39388;50.936;6.848;2022-08-19T05:39:56;100784.50;;;20.08;77.41
53506;BME280;39388;50.936;6.848;2022-08-19T05:42:27;100796.47;;;20.14;77.34
53506;BME280;39388;50.936;6.848;2022-08-19T05:44:57;100797.31;;;20.14;77.40
53506;BME280;39388;50.936;6.848;2022-08-19T05:47:28;100800.66;;;20.18;77.31
53506;BME280;39388;50.936;6.848;2022-08-19T05:49:58;100794.63;;;20.16;77.29
53506;BME280;39388;50.936;6.848;2022-08-19T05:52:29;100795.22;;;20.23;77.47
53506;BME280;39388;50.936;6.848;2022-08-19T05:55:00;100786.44;;;20.24;77.22
53506;BME280;39388;50.936;6.848;2022-08-19T05:57:30;100804.44;;;20.31;76.96
53506;BME280;39388;50.936;6.848;2022-08-19T06:00:01;100796.72;;;20.28;76.92
53506;BME280;39388;50.936;6.848;2022-08-19T06:02:33;100788.84;;;20.28;76.88
53506;BME280;39388;50.936;6.848;2022-08-19T06:05:04;100805.84;;;20.40;77.08
53506;BME280;39388;50.936;6.848;2022-08-19T06:07:39;100794.69;;;20.35;76.80
53506;BME280;39388;50.936;6.848;2022-08-19T06:10:11;100801.31;;;20.44;76.85
53506;BME280;39388;50.936;6.848;2022-08-19T06:12:41;100793.34;;;20.45;76.93
53506;BME280;39388;50.936;6.848;2022-08-19T06:15:13;100791.31;;;20.52;76.83
53506;BME280;39388;50.936;6.848;2022-08-19T06:17:44;100790.56;;;20.69;76.51
53506;BME280;39388;50.936;6.848;2022-08-19T06:20:14;100780.19;;;20.85;75.67
53506;BME280;39388;50.936;6.848;2022-08-19T06:22:47;100781.41;;;20.97;75.03
53506;BME280;39388;50.936;6.848;2022-08-19T06:25:19;100799.72;;;21.16;74.68
53506;BME280;39388;50.936;6.848;2022-08-19T06:27:50;100799.66;;;21.54;73.74
53506;BME280;39388;50.936;6.848;2022-08-19T06:30:20;100790.63;;;21.78;72.49
53506;BME280;39388;50.936;6.848;2022-08-19T06:32:51;100784.88;;;21.87;72.29
53506;BME280;39388;50.936;6.848;2022-08-19T06:35:21;100789.75;;;21.95;71.64
53506;BME280;39388;50.936;6.848;2022-08-19T06:37:52;100786.44;;;21.91;72.09
53506;BME280;39388;50.936;6.848;2022-08-19T06:40:22;100787.91;;;21.97;71.79
53506;BME280;39388;50.936;6.848;2022-08-19T06:42:53;100786.13;;;21.97;72.02
53506;BME280;39388;50.936;6.848;2022-08-19T06:45:24;100787.91;;;21.97;71.97
53506;BME280;39388;50.936;6.848;2022-08-19T06:47:54;100783.66;;;22.12;71.67
53506;BME280;39388;50.936;6.848;2022-08-19T06:50:25;100785.81;;;22.21;71.21
53506;BME280;39388;50.936;6.848;2022-08-19T06:52:56;100789.81;;;22.28;70.81
53506;BME280;39388;50.936;6.848;2022-08-19T06:55:26;100795.84;;;22.13;71.04
53506;BME280;39388;50.936;6.848;2022-08-19T06:58:02;100802.56;;;22.01;71.49
53506;BME280;39388;50.936;6.848;2022-08-19T07:00:33;100800.59;;;21.89;71.33
53506;BME280;39388;50.936;6.848;2022-08-19T07:03:04;100806.75;;;21.88;71.78
53506;BME280;39388;50.936;6.848;2022-08-19T07:05:39;100812.78;;;21.90;72.04
53506;BME280;39388;50.936;6.848;2022-08-19T07:08:10;100805.06;;;21.87;72.00
53506;BME280;39388;50.936;6.848;2022-08-19T07:10:44;100816.38;;;21.87;71.90
53506;BME280;39388;50.936;6.848;2022-08-19T07:13:15;100819.25;;;21.82;71.58
53506;BME280;39388;50.936;6.848;2022-08-19T07:15:45;100824.75;;;21.78;71.90
53506;BME280;39388;50.936;6.848;2022-08-19T07:18:19;100828.38;;;21.75;71.80
53506;BME280;39388;50.936;6.848;2022-08-19T07:20:50;100821.97;;;21.63;72.08
53506;BME280;39388;50.936;6.848;2022-08-19T07:23:20;100834.06;;;21.66;71.84
53506;BME280;39388;50.936;6.848;2022-08-19T07:25:51;100834.06;;;21.66;71.95
53506;BME280;39388;50.936;6.848;2022-08-19T07:28:21;100831.28;;;21.69;72.14
53506;BME280;39388;50.936;6.848;2022-08-19T07:30:52;100838.16;;;21.72;71.70
53506;BME280;39388;50.936;6.848;2022-08-19T07:33:23;100844.28;;;21.72;72.14
53506;BME280;39388;50.936;6.848;2022-08-19T07:35:53;100848.06;;;21.84;72.24
53506;BME280;39388;50.936;6.848;2022-08-19T07:38:24;100840.00;;;21.87;72.01
53506;BME280;39388;50.936;6.848;2022-08-19T07:40:54;100848.22;;;21.98;71.42
53506;BME280;39388;50.936;6.848;2022-08-19T07:43:25;100854.84;;;22.06;71.23
53506;BME280;39388;50.936;6.848;2022-08-19T07:45:57;100850.91;;;22.14;70.83
53506;BME280;39388;50.936;6.848;2022-08-19T07:48:28;100854.13;;;22.37;70.46
53506;BME280;39388;50.936;6.848;2022-08-19T07:51:01;100861.63;;;22.45;70.53
53506;BME280;39388;50.936;6.848;2022-08-19T07:53:32;100863.56;;;22.41;69.89
53506;BME280;39388;50.936;6.848;2022-08-19T07:56:05;100861.94;;;22.39;70.21
53506;BME280;39388;50.936;6.848;2022-08-19T07:58:39;100866.66;;;22.50;69.88
53506;BME280;39388;50.936;6.848;2022-08-19T08:01:15;100858.44;;;22.72;69.92
53506;BME280;39388;50.936;6.848;2022-08-19T08:03:46;100852.66;;;22.99;68.90
53506;BME280;39388;50.936;6.848;2022-08-19T08:06:35;100863.66;;;23.37;67.81
53506;BME280;39388;50.936;6.848;2022-08-19T08:09:34;100855.28;;;23.77;67.09
53506;BME280;39388;50.936;6.848;2022-08-19T08:12:09;100860.94;;;24.16;65.99
53506;BME280;39388;50.936;6.848;2022-08-19T08:14:49;100868.78;;;24.47;64.86
53506;BME280;39388;50.936;6.848;2022-08-19T08:17:23;100863.91;;;24.84;64.11
53506;BME280;39388;50.936;6.848;2022-08-19T08:19:53;100855.03;;;25.27;62.79
53506;BME280;39388;50.936;6.848;2022-08-19T08:22:24;100858.59;;;25.68;61.89
53506;BME280;39388;50.936;6.848;2022-08-19T08:25:18;100857.06;;;25.91;61.17
53506;BME280;39388;50.936;6.848;2022-08-19T08:27:49;100844.88;;;25.88;60.66
53506;BME280;39388;50.936;6.848;2022-08-19T08:30:22;100866.38;;;26.09;60.55
53506;BME280;39388;50.936;6.848;2022-08-19T08:32:53;100859.84;;;26.28;60.22
53506;BME280;39388;50.936;6.848;2022-08-19T08:35:24;100870.31;;;26.42;59.49
53506;BME280;39388;50.936;6.848;2022-08-19T08:37:55;100874.31;;;26.48;58.87
53506;BME280;39388;50.936;6.848;2022-08-19T08:43:30;100858.34;;;27.13;57.70
53506;BME280;39388;50.936;6.848;2022-08-19T08:46:08;100866.06;;;27.16;56.88
53506;BME280;39388;50.936;6.848;2022-08-19T08:48:46;100861.28;;;27.21;56.99
53506;BME280;39388;50.936;6.848;2022-08-19T08:51:36;100859.28;;;27.12;56.26
53506;BME280;39388;50.936;6.848;2022-08-19T08:54:11;100861.25;;;26.97;56.43
53506;BME280;39388;50.936;6.848;2022-08-19T08:56:43;100857.25;;;26.91;56.31
53506;BME280;39388;50.936;6.848;2022-08-19T08:59:28;100862.63;;;27.02;55.91
53506;BME280;39388;50.936;6.848;2022-08-19T09:02:02;100858.78;;;27.07;55.58
53506;BME280;39388;50.936;6.848;2022-08-19T09:04:37;100863.97;;;27.08;54.95
53506;BME280;39388;50.936;6.848;2022-08-19T09:07:45;100862.50;;;27.04;54.56
53506;BME280;39388;50.936;6.848;2022-08-19T09:10:33;100869.22;;;26.84;54.41
53506;BME280;39388;50.936;6.848;2022-08-19T09:15:59;100860.44;;;26.83;54.14
53506;BME280;39388;50.936;6.848;2022-08-19T09:21:14;100865.84;;;26.69;54.10
53506;BME280;39388;50.936;6.848;2022-08-19T09:23:45;100864.78;;;26.71;54.32
53506;BME280;39388;50.936;6.848;2022-08-19T09:26:18;100866.16;;;26.90;54.32
53506;BME280;39388;50.936;6.848;2022-08-19T09:28:51;100850.28;;;26.90;53.93
53506;BME280;39388;50.936;6.848;2022-08-19T09:31:26;100850.56;;;26.98;54.05
53506;BME280;39388;50.936;6.848;2022-08-19T09:33:56;100857.09;;;27.06;53.47
53506;BME280;39388;50.936;6.848;2022-08-19T09:36:28;100846.81;;;27.01;53.09
53506;BME280;39388;50.936;6.848;2022-08-19T09:38:59;100856.03;;;27.08;53.27
53506;BME280;39388;50.936;6.848;2022-08-19T09:41:30;100851.81;;;27.06;52.99
53506;BME280;39388;50.936;6.848;2022-08-19T09:44:01;100846.19;;;27.10;53.27
53506;BME280;39388;50.936;6.848;2022-08-19T09:46:31;100857.50;;;27.12;52.35
53506;BME280;39388;50.936;6.848;2022-08-19T09:49:02;100853.16;;;27.11;52.38
53506;BME280;39388;50.936;6.848;2022-08-19T09:51:35;100850.50;;;27.11;51.99
53506;BME280;39388;50.936;6.848;2022-08-19T09:54:05;100846.56;;;27.17;51.78
53506;BME280;39388;50.936;6.848;2022-08-19T09:56:36;100846.91;;;27.37;51.44
53506;BME280;39388;50.936;6.848;2022-08-19T09:59:06;100846.09;;;27.47;50.68
53506;BME280;39388;50.936;6.848;2022-08-19T10:01:37;100842.31;;;27.52;50.77
53506;BME280;39388;50.936;6.848;2022-08-19T10:04:08;100837.63;;;27.55;50.30
53506;BME280;39388;50.936;6.848;2022-08-19T10:06:39;100847.66;;;27.74;50.35
53506;BME280;39388;50.936;6.848;2022-08-19T10:09:10;100840.47;;;27.88;49.64
53506;BME280;39388;50.936;6.848;2022-08-19T10:11:42;100837.59;;;28.02;49.14
53506;BME280;39388;50.936;6.848;2022-08-19T10:14:13;100835.59;;;28.06;48.41
53506;BME280;39388;50.936;6.848;2022-08-19T10:16:45;100832.06;;;28.05;48.40
53506;BME280;39388;50.936;6.848;2022-08-19T10:19:15;100831.59;;;28.00;48.50
53506;BME280;39388;50.936;6.848;2022-08-19T10:21:45;100827.13;;;27.89;47.85
53506;BME280;39388;50.936;6.848;2022-08-19T10:24:16;100829.41;;;27.94;47.88
53506;BME280;39388;50.936;6.848;2022-08-19T10:26:46;100824.94;;;27.83;47.59
53506;BME280;39388;50.936;6.848;2022-08-19T10:29:18;100827.22;;;27.88;47.36
53506;BME280;39388;50.936;6.848;2022-08-19T10:31:49;100830.63;;;28.01;47.60
53506;BME280;39388;50.936;6.848;2022-08-19T10:34:19;100824.63;;;28.11;47.14
53506;BME280;39388;50.936;6.848;2022-08-19T10:36:49;100830.56;;;28.26;47.08
53506;BME280;39388;50.936;6.848;2022-08-19T10:39:20;100829.38;;;28.30;47.05
53506;BME280;39388;50.936;6.848;2022-08-19T10:41:50;100835.03;;;28.25;47.66
53506;BME280;39388;50.936;6.848;2022-08-19T10:44:21;100830.16;;;28.07;47.61
53506;BME280;39388;50.936;6.848;2022-08-19T10:46:53;100828.00;;;28.13;48.35
53506;BME280;39388;50.936;6.848;2022-08-19T10:49:23;100828.22;;;28.09;48.41
53506;BME280;39388;50.936;6.848;2022-08-19T10:51:55;100831.34;;;27.92;48.39
53506;BME280;39388;50.936;6.848;2022-08-19T10:54:44;100819.84;;;27.69;49.21
53506;BME280;39388;50.936;6.848;2022-08-19T10:57:32;100824.91;;;27.72;48.53
53506;BME280;39388;50.936;6.848;2022-08-19T11:00:04;100826.53;;;27.86;48.48
53506;BME280;39388;50.936;6.848;2022-08-19T11:02:34;100825.94;;;27.93;47.60
53506;BME280;39388;50.936;6.848;2022-08-19T11:05:05;100822.19;;;27.85;46.82
53506;BME280;39388;50.936;6.848;2022-08-19T11:07:37;100822.38;;;27.70;47.59
53506;BME280;39388;50.936;6.848;2022-08-19T11:10:09;100809.44;;;27.54;47.53
53506;BME280;39388;50.936;6.848;2022-08-19T11:12:40;100810.31;;;27.55;47.74
53506;BME280;39388;50.936;6.848;2022-08-19T11:15:10;100813.19;;;27.63;47.60
53506;BME280;39388;50.936;6.848;2022-08-19T11:17:41;100812.53;;;27.84;47.58
53506;BME280;39388;50.936;6.848;2022-08-19T11:20:14;100805.84;;;28.14;46.69
53506;BME280;39388;50.936;6.848;2022-08-19T11:22:45;100812.50;;;28.31;46.50
53506;BME280;39388;50.936;6.848;2022-08-19T11:25:15;100810.19;;;28.37;45.91
53506;BME280;39388;50.936;6.848;2022-08-19T11:27:45;100813.94;;;28.35;45.81
53506;BME280;39388;50.936;6.848;2022-08-19T11:30:16;100813.22;;;28.21;45.89
53506;BME280;39388;50.936;6.848;2022-08-19T11:32:46;100819.72;;;28.29;45.64
53506;BME280;39388;50.936;6.848;2022-08-19T11:35:17;100818.75;;;28.30;45.38
53506;BME280;39388;50.936;6.848;2022-08-19T11:37:49;100802.91;;;28.17;45.67
53506;BME280;39388;50.936;6.848;2022-08-19T11:40:20;100808.97;;;28.19;46.23
53506;BME280;39388;50.936;6.848;2022-08-19T11:42:50;100799.97;;;28.33;45.92
53506;BME280;39388;50.936;6.848;2022-08-19T11:45:28;100817.03;;;28.51;45.61
53506;BME280;39388;50.936;6.848;2022-08-19T11:47:59;100807.66;;;28.59;45.83
53506;BME280;39388;50.936;6.848;2022-08-19T11:50:29;100805.47;;;28.64;44.74
53506;BME280;39388;50.936;6.848;2022-08-19T11:53:00;100810.06;;;28.62;44.55
53506;BME280;39388;50.936;6.848;2022-08-19T11:55:30;100805.47;;;28.64;44.62
53506;BME280;39388;50.936;6.848;2022-08-19T11:58:01;100784.00;;;28.56;44.23
53506;BME280;39388;50.936;6.848;2022-08-19T12:00:32;100804.00;;;28.71;44.20
53506;BME280;39388;50.936;6.848;2022-08-19T12:03:04;100795.28;;;28.80;43.96
53506;BME280;39388;50.936;6.848;2022-08-19T12:05:37;100801.97;;;28.86;43.51
53506;BME280;39388;50.936;6.848;2022-08-19T12:08:08;100805.31;;;28.99;43.18
53506;BME280;39388;50.936;6.848;2022-08-19T12:10:39;100805.31;;;28.99;42.62
53506;BME280;39388;50.936;6.848;2022-08-19T12:13:12;100801.59;;;28.91;42.88
53506;BME280;39388;50.936;6.848;2022-08-19T12:15:48;100797.22;;;29.01;42.44
53506;BME280;39388;50.936;6.848;2022-08-19T12:18:18;100803.34;;;29.02;42.14
53506;BME280;39388;50.936;6.848;2022-08-19T12:20:50;100792.97;;;29.10;42.62
53506;BME280;39388;50.936;6.848;2022-08-19T12:23:21;100782.94;;;29.13;42.61
53506;BME280;39388;50.936;6.848;2022-08-19T12:25:52;100788.72;;;29.19;42.26
53506;BME280;39388;50.936;6.848;2022-08-19T12:28:24;100786.16;;;29.17;42.59
53506;BME280;39388;50.936;6.848;2022-08-19T12:30:55;100786.31;;;29.15;42.46
53506;BME280;39388;50.936;6.848;2022-08-19T12:33:26;100775.03;;;29.23;42.06
53506;BME280;39388;50.936;6.848;2022-08-19T12:36:03;100764.59;;;29.32;41.57
53506;BME280;39388;50.936;6.848;2022-08-19T12:38:35;100772.50;;;29.54;41.17
53506;BME280;39388;50.936;6.848;2022-08-19T12:41:07;100777.28;;;29.60;40.84
53506;BME280;39388;50.936;6.848;2022-08-19T12:43:39;100780.78;;;29.61;41.09
53506;BME280;39388;50.936;6.848;2022-08-19T12:46:10;100786.09;;;29.61;40.94
53506;BME280;39388;50.936;6.848;2022-08-19T12:48:41;100777.41;;;29.59;40.90
53506;BME280;39388;50.936;6.848;2022-08-19T12:51:14;100773.84;;;29.70;40.48
53506;BME280;39388;50.936;6.848;2022-08-19T12:53:46;100779.16;;;29.91;40.45
53506;BME280;39388;50.936;6.848;2022-08-19T12:56:17;100771.34;;;29.99;39.97
53506;BME280;39388;50.936;6.848;2022-08-19T12:58:49;100778.75;;;29.96;39.43
53506;BME280;39388;50.936;6.848;2022-08-19T13:01:20;100767.34;;;29.84;39.21
53506;BME280;39388;50.936;6.848;2022-08-19T13:03:50;100769.56;;;29.79;39.12
53506;BME280;39388;50.936;6.848;2022-08-19T13:06:24;100766.78;;;29.80;38.56
53506;BME280;39388;50.936;6.848;2022-08-19T13:08:55;100756.97;;;29.81;38.88
53506;BME280;39388;50.936;6.848;2022-08-19T13:11:25;100754.78;;;29.86;38.37
53506;BME280;39388;50.936;6.848;2022-08-19T13:13:56;100757.97;;;29.80;38.52
53506;BME280;39388;50.936;6.848;2022-08-19T13:16:26;100760.75;;;29.78;38.33
53506;BME280;39388;50.936;6.848;2022-08-19T13:18:58;100754.41;;;29.69;38.07
53506;BME280;39388;50.936;6.848;2022-08-19T13:21:28;100742.63;;;29.62;37.71
53506;BME280;39388;50.936;6.848;2022-08-19T13:24:00;100749.63;;;29.63;37.73